sensor_id;sensor_type;location;lat;lon;timestamp;P1;durP1;ratioP1;P2;durP2;ratioP2
8333;SDS011;4204;43.004;23.052;2022-10-03T00:01:37;1.60;;;1.50;;
8333;SDS011;4204;43.004;23.052;2022-10-03T00:04:20;1.80;;;1.57;;
8333;SDS011;4204;43.004;23.052;2022-10-03T00:07:06;3.50;;;1.53;;
8333;SDS011;4204;43.004;23.052;2022-10-03T00:09:48;1.73;;;1.63;;
8333;SDS011;4204;43.004;23.052;2022-10-03T00:12:40;1.93;;;1.83;;
8333;SDS011;4204;43.004;23.052;2022-10-03T00:15:18;1.93;;;1.80;;
8333;SDS011;4204;43.004;23.052;2022-10-03T00:17:56;1.80;;;1.63;;
8333;SDS011;4204;43.004;23.052;2022-10-03T00:20:35;3.17;;;1.50;;
8333;SDS011;4204;43.004;23.052;2022-10-03T00:23:12;2.13;;;1.60;;
8333;SDS011;4204;43.004;23.052;2022-10-03T00:25:48;2.07;;;1.80;;
8333;SDS011;4204;43.004;23.052;2022-10-03T00:28:49;3.53;;;1.63;;
8333;SDS011;4204;43.004;23.052;2022-10-03T00:31:32;2.40;;;1.60;;
8333;SDS011;4204;43.004;23.052;2022-10-03T00:34:11;1.67;;;1.53;;
8333;SDS011;4204;43.004;23.052;2022-10-03T00:36:47;2.00;;;1.80;;
8333;SDS011;4204;43.004;23.052;2022-10-03T00:39:30;1.80;;;1.70;;
8333;SDS011;4204;43.004;23.052;2022-10-03T00:42:19;1.60;;;1.50;;
8333;SDS011;4204;43.004;23.052;2022-10-03T00:45:19;1.80;;;1.70;;
8333;SDS011;4204;43.004;23.052;2022-10-03T00:51:18;1.67;;;1.57;;
8333;SDS011;4204;43.004;23.052;2022-10-03T00:53:57;1.67;;;1.57;;
8333;SDS011;4204;43.004;23.052;2022-10-03T00:59:38;1.40;;;1.30;;
8333;SDS011;4204;43.004;23.052;2022-10-03T01:02:25;1.80;;;1.70;;
8333;SDS011;4204;43.004;23.052;2022-10-03T01:05:05;2.17;;;1.80;;
8333;SDS011;4204;43.004;23.052;2022-10-03T01:10:33;1.47;;;1.37;;
8333;SDS011;4204;43.004;23.052;2022-10-03T01:13:14;2.33;;;1.70;;
8333;SDS011;4204;43.004;23.052;2022-10-03T01:15:54;2.10;;;1.73;;
8333;SDS011;4204;43.004;23.052;2022-10-03T01:18:39;1.90;;;1.60;;
8333;SDS011;4204;43.004;23.052;2022-10-03T01:21:20;1.90;;;1.70;;
8333;SDS011;4204;43.004;23.052;2022-10-03T01:24:01;1.97;;;1.77;;
8333;SDS011;4204;43.004;23.052;2022-10-03T01:26:57;1.50;;;1.40;;
8333;SDS011;4204;43.004;23.052;2022-10-03T01:32:37;3.37;;;2.00;;
8333;SDS011;4204;43.004;23.052;2022-10-03T01:35:15;3.53;;;1.63;;
8333;SDS011;4204;43.004;23.052;2022-10-03T01:37:51;1.83;;;1.70;;
8333;SDS011;4204;43.004;23.052;2022-10-03T01:40:28;1.63;;;1.50;;
8333;SDS011;4204;43.004;23.052;2022-10-03T01:43:09;1.97;;;1.73;;
8333;SDS011;4204;43.004;23.052;2022-10-03T01:45:57;2.90;;;1.80;;
8333;SDS011;4204;43.004;23.052;2022-10-03T01:48:34;2.77;;;2.00;;
8333;SDS011;4204;43.004;23.052;2022-10-03T01:51:12;1.90;;;1.40;;
8333;SDS011;4204;43.004;23.052;2022-10-03T01:53:47;1.50;;;1.40;;
8333;SDS011;4204;43.004;23.052;2022-10-03T01:56:28;2.47;;;2.20;;
8333;SDS011;4204;43.004;23.052;2022-10-03T01:59:03;4.83;;;2.80;;
8333;SDS011;4204;43.004;23.052;2022-10-03T02:01:38;4.47;;;2.20;;
8333;SDS011;4204;43.004;23.052;2022-10-03T02:04:14;4.27;;;2.03;;
8333;SDS011;4204;43.004;23.052;2022-10-03T02:06:57;2.03;;;1.83;;
8333;SDS011;4204;43.004;23.052;2022-10-03T02:09:33;4.93;;;1.77;;
8333;SDS011;4204;43.004;23.052;2022-10-03T02:12:08;1.50;;;1.40;;
8333;SDS011;4204;43.004;23.052;2022-10-03T02:14:44;2.10;;;1.80;;
8333;SDS011;4204;43.004;23.052;2022-10-03T02:17:29;1.60;;;1.50;;
8333;SDS011;4204;43.004;23.052;2022-10-03T02:20:11;3.70;;;1.43;;
8333;SDS011;4204;43.004;23.052;2022-10-03T02:22:49;2.00;;;1.57;;
8333;SDS011;4204;43.004;23.052;2022-10-03T02:25:20;3.47;;;1.63;;
8333;SDS011;4204;43.004;23.052;2022-10-03T02:34:16;2.20;;;1.77;;
8333;SDS011;4204;43.004;23.052;2022-10-03T02:37:02;1.60;;;1.37;;
8333;SDS011;4204;43.004;23.052;2022-10-03T02:46:31;3.53;;;1.80;;
8333;SDS011;4204;43.004;23.052;2022-10-03T02:52:40;2.03;;;1.57;;
8333;SDS011;4204;43.004;23.052;2022-10-03T03:01:48;6.70;;;1.87;;
8333;SDS011;4204;43.004;23.052;2022-10-03T03:07:50;3.57;;;2.40;;
8333;SDS011;4204;43.004;23.052;2022-10-03T03:11:06;2.50;;;2.30;;
8333;SDS011;4204;43.004;23.052;2022-10-03T03:17:10;2.53;;;2.23;;
8333;SDS011;4204;43.004;23.052;2022-10-03T03:19:53;4.03;;;3.03;;
8333;SDS011;4204;43.004;23.052;2022-10-03T03:22:45;3.13;;;2.37;;
8333;SDS011;4204;43.004;23.052;2022-10-03T03:25:34;3.33;;;1.90;;
8333;SDS011;4204;43.004;23.052;2022-10-03T03:28:25;3.17;;;2.30;;
8333;SDS011;4204;43.004;23.052;2022-10-03T03:31:08;3.73;;;2.73;;
8333;SDS011;4204;43.004;23.052;2022-10-03T03:33:42;4.00;;;2.43;;
8333;SDS011;4204;43.004;23.052;2022-10-03T03:36:21;2.73;;;2.23;;
8333;SDS011;4204;43.004;23.052;2022-10-03T03:38:58;3.03;;;2.33;;
8333;SDS011;4204;43.004;23.052;2022-10-03T03:41:42;3.20;;;2.20;;
8333;SDS011;4204;43.004;23.052;2022-10-03T03:44:27;4.00;;;2.17;;
8333;SDS011;4204;43.004;23.052;2022-10-03T03:47:13;3.70;;;2.67;;
8333;SDS011;4204;43.004;23.052;2022-10-03T03:50:02;6.43;;;3.13;;
8333;SDS011;4204;43.004;23.052;2022-10-03T03:52:57;4.23;;;2.70;;
8333;SDS011;4204;43.004;23.052;2022-10-03T03:55:56;6.03;;;4.20;;
8333;SDS011;4204;43.004;23.052;2022-10-03T03:58:36;11.50;;;3.17;;
8333;SDS011;4204;43.004;23.052;2022-10-03T04:01:17;6.10;;;3.43;;
8333;SDS011;4204;43.004;23.052;2022-10-03T04:03:59;8.30;;;3.17;;
8333;SDS011;4204;43.004;23.052;2022-10-03T04:06:41;13.90;;;7.57;;
8333;SDS011;4204;43.004;23.052;2022-10-03T04:09:30;11.53;;;4.80;;
8333;SDS011;4204;43.004;23.052;2022-10-03T04:12:18;6.73;;;2.60;;
8333;SDS011;4204;43.004;23.052;2022-10-03T04:14:59;4.93;;;3.20;;
8333;SDS011;4204;43.004;23.052;2022-10-03T04:21:00;4.47;;;2.93;;
8333;SDS011;4204;43.004;23.052;2022-10-03T04:23:53;6.27;;;3.00;;
8333;SDS011;4204;43.004;23.052;2022-10-03T04:26:36;3.27;;;2.70;;
8333;SDS011;4204;43.004;23.052;2022-10-03T04:29:22;8.67;;;2.97;;
8333;SDS011;4204;43.004;23.052;2022-10-03T04:32:06;7.30;;;3.73;;
8333;SDS011;4204;43.004;23.052;2022-10-03T04:34:45;3.80;;;2.87;;
8333;SDS011;4204;43.004;23.052;2022-10-03T04:37:25;4.20;;;3.30;;
8333;SDS011;4204;43.004;23.052;2022-10-03T04:43:02;5.13;;;2.97;;
8333;SDS011;4204;43.004;23.052;2022-10-03T04:45:39;6.73;;;3.60;;
8333;SDS011;4204;43.004;23.052;2022-10-03T04:48:23;5.17;;;3.60;;
8333;SDS011;4204;43.004;23.052;2022-10-03T04:51:06;4.00;;;3.00;;
8333;SDS011;4204;43.004;23.052;2022-10-03T04:53:41;5.20;;;2.33;;
8333;SDS011;4204;43.004;23.052;2022-10-03T04:56:19;6.03;;;4.70;;
8333;SDS011;4204;43.004;23.052;2022-10-03T04:59:01;5.73;;;4.33;;
8333;SDS011;4204;43.004;23.052;2022-10-03T05:01:42;4.40;;;3.93;;
8333;SDS011;4204;43.004;23.052;2022-10-03T05:04:18;4.60;;;2.80;;
8333;SDS011;4204;43.004;23.052;2022-10-03T05:06:58;3.30;;;2.80;;
8333;SDS011;4204;43.004;23.052;2022-10-03T05:09:35;7.00;;;5.00;;
8333;SDS011;4204;43.004;23.052;2022-10-03T05:12:09;5.93;;;4.93;;
8333;SDS011;4204;43.004;23.052;2022-10-03T05:14:47;6.13;;;4.27;;
8333;SDS011;4204;43.004;23.052;2022-10-03T05:17:29;5.10;;;3.87;;
8333;SDS011;4204;43.004;23.052;2022-10-03T05:23:10;6.10;;;4.07;;
8333;SDS011;4204;43.004;23.052;2022-10-03T05:25:47;6.67;;;3.40;;
8333;SDS011;4204;43.004;23.052;2022-10-03T05:28:23;6.20;;;3.17;;
8333;SDS011;4204;43.004;23.052;2022-10-03T05:30:57;5.17;;;3.30;;
8333;SDS011;4204;43.004;23.052;2022-10-03T05:33:36;5.00;;;3.90;;
8333;SDS011;4204;43.004;23.052;2022-10-03T05:36:14;7.30;;;4.90;;
8333;SDS011;4204;43.004;23.052;2022-10-03T05:41:51;6.83;;;4.40;;
8333;SDS011;4204;43.004;23.052;2022-10-03T05:44:24;9.33;;;5.73;;
8333;SDS011;4204;43.004;23.052;2022-10-03T05:47:07;21.90;;;14.77;;
8333;SDS011;4204;43.004;23.052;2022-10-03T05:50:04;21.07;;;14.17;;
8333;SDS011;4204;43.004;23.052;2022-10-03T05:55:55;20.10;;;13.73;;
8333;SDS011;4204;43.004;23.052;2022-10-03T05:58:41;12.20;;;9.20;;
8333;SDS011;4204;43.004;23.052;2022-10-03T06:07:42;5.33;;;3.73;;
8333;SDS011;4204;43.004;23.052;2022-10-03T06:13:26;3.47;;;3.00;;
8333;SDS011;4204;43.004;23.052;2022-10-03T06:16:12;3.07;;;2.60;;
8333;SDS011;4204;43.004;23.052;2022-10-03T06:18:56;3.57;;;3.27;;
8333;SDS011;4204;43.004;23.052;2022-10-03T06:31:01;13.33;;;9.40;;
8333;SDS011;4204;43.004;23.052;2022-10-03T06:37:05;13.43;;;9.50;;
8333;SDS011;4204;43.004;23.052;2022-10-03T06:39:57;13.43;;;8.83;;
8333;SDS011;4204;43.004;23.052;2022-10-03T06:42:44;8.77;;;6.67;;
8333;SDS011;4204;43.004;23.052;2022-10-03T06:48:33;4.67;;;3.83;;
8333;SDS011;4204;43.004;23.052;2022-10-03T06:54:44;3.10;;;2.67;;
8333;SDS011;4204;43.004;23.052;2022-10-03T06:57:45;3.50;;;2.50;;
8333;SDS011;4204;43.004;23.052;2022-10-03T07:00:39;5.43;;;4.17;;
8333;SDS011;4204;43.004;23.052;2022-10-03T07:10:03;5.17;;;3.90;;
8333;SDS011;4204;43.004;23.052;2022-10-03T07:16:02;4.80;;;3.07;;
8333;SDS011;4204;43.004;23.052;2022-10-03T07:18:52;5.43;;;3.10;;
8333;SDS011;4204;43.004;23.052;2022-10-03T07:28:05;3.93;;;2.70;;
8333;SDS011;4204;43.004;23.052;2022-10-03T07:30:58;3.20;;;2.70;;
8333;SDS011;4204;43.004;23.052;2022-10-03T07:40:15;3.43;;;3.10;;
8333;SDS011;4204;43.004;23.052;2022-10-03T07:43:22;3.47;;;3.07;;
8333;SDS011;4204;43.004;23.052;2022-10-03T07:46:23;4.63;;;2.90;;
8333;SDS011;4204;43.004;23.052;2022-10-03T07:49:20;5.97;;;2.60;;
8333;SDS011;4204;43.004;23.052;2022-10-03T07:55:23;3.43;;;2.93;;
8333;SDS011;4204;43.004;23.052;2022-10-03T08:01:16;4.20;;;2.90;;
8333;SDS011;4204;43.004;23.052;2022-10-03T08:07:04;10.97;;;7.10;;
8333;SDS011;4204;43.004;23.052;2022-10-03T08:09:49;5.20;;;4.50;;
8333;SDS011;4204;43.004;23.052;2022-10-03T08:12:39;8.97;;;5.93;;
8333;SDS011;4204;43.004;23.052;2022-10-03T08:15:29;5.97;;;3.77;;
8333;SDS011;4204;43.004;23.052;2022-10-03T08:21:03;6.73;;;3.90;;
8333;SDS011;4204;43.004;23.052;2022-10-03T08:23:49;11.87;;;7.77;;
8333;SDS011;4204;43.004;23.052;2022-10-03T08:26:51;12.83;;;10.07;;
8333;SDS011;4204;43.004;23.052;2022-10-03T08:35:41;5.93;;;5.30;;
8333;SDS011;4204;43.004;23.052;2022-10-03T08:38:50;5.20;;;4.70;;
8333;SDS011;4204;43.004;23.052;2022-10-03T08:41:44;6.70;;;4.63;;
8333;SDS011;4204;43.004;23.052;2022-10-03T08:44:44;9.40;;;5.83;;
8333;SDS011;4204;43.004;23.052;2022-10-03T08:47:41;10.93;;;7.27;;
8333;SDS011;4204;43.004;23.052;2022-10-03T08:50:34;7.13;;;5.67;;
8333;SDS011;4204;43.004;23.052;2022-10-03T08:56:45;12.73;;;8.90;;
8333;SDS011;4204;43.004;23.052;2022-10-03T09:08:54;12.87;;;10.07;;
8333;SDS011;4204;43.004;23.052;2022-10-03T09:11:53;8.80;;;7.00;;
8333;SDS011;4204;43.004;23.052;2022-10-03T09:15:09;7.90;;;7.10;;
8333;SDS011;4204;43.004;23.052;2022-10-03T09:27:24;6.57;;;5.80;;
8333;SDS011;4204;43.004;23.052;2022-10-03T09:30:16;8.53;;;5.10;;
8333;SDS011;4204;43.004;23.052;2022-10-03T09:32:58;11.07;;;5.37;;
8333;SDS011;4204;43.004;23.052;2022-10-03T09:35:58;11.17;;;6.87;;
8333;SDS011;4204;43.004;23.052;2022-10-03T09:39:02;7.07;;;5.10;;
8333;SDS011;4204;43.004;23.052;2022-10-03T09:41:55;5.43;;;4.47;;
8333;SDS011;4204;43.004;23.052;2022-10-03T09:56:58;3.03;;;2.83;;
8333;SDS011;4204;43.004;23.052;2022-10-03T10:03:11;2.90;;;2.60;;
8333;SDS011;4204;43.004;23.052;2022-10-03T10:12:09;3.83;;;3.53;;
8333;SDS011;4204;43.004;23.052;2022-10-03T10:18:02;2.97;;;2.70;;
8333;SDS011;4204;43.004;23.052;2022-10-03T10:21:02;2.20;;;2.00;;
8333;SDS011;4204;43.004;23.052;2022-10-03T10:23:51;2.53;;;2.33;;
8333;SDS011;4204;43.004;23.052;2022-10-03T10:26:39;2.50;;;2.30;;
8333;SDS011;4204;43.004;23.052;2022-10-03T10:29:26;2.90;;;2.63;;
8333;SDS011;4204;43.004;23.052;2022-10-03T10:35:21;2.23;;;2.03;;
8333;SDS011;4204;43.004;23.052;2022-10-03T10:38:20;2.30;;;2.10;;
8333;SDS011;4204;43.004;23.052;2022-10-03T10:47:04;6.57;;;3.87;;
8333;SDS011;4204;43.004;23.052;2022-10-03T10:49:51;3.60;;;3.30;;
8333;SDS011;4204;43.004;23.052;2022-10-03T10:52:46;3.30;;;3.00;;
8333;SDS011;4204;43.004;23.052;2022-10-03T10:59:04;4.13;;;2.80;;
8333;SDS011;4204;43.004;23.052;2022-10-03T11:05:25;4.77;;;3.93;;
8333;SDS011;4204;43.004;23.052;2022-10-03T11:11:31;4.43;;;3.50;;
8333;SDS011;4204;43.004;23.052;2022-10-03T11:30:51;5.97;;;4.70;;
8333;SDS011;4204;43.004;23.052;2022-10-03T11:40:21;5.17;;;4.50;;
8333;SDS011;4204;43.004;23.052;2022-10-03T11:42:59;4.80;;;3.90;;
8333;SDS011;4204;43.004;23.052;2022-10-03T11:45:47;4.80;;;4.30;;
8333;SDS011;4204;43.004;23.052;2022-10-03T11:48:24;5.33;;;4.50;;
8333;SDS011;4204;43.004;23.052;2022-10-03T11:51:05;7.37;;;4.70;;
8333;SDS011;4204;43.004;23.052;2022-10-03T11:53:46;7.20;;;4.30;;
8333;SDS011;4204;43.004;23.052;2022-10-03T11:56:29;4.90;;;4.43;;
8333;SDS011;4204;43.004;23.052;2022-10-03T11:59:11;5.10;;;4.57;;
8333;SDS011;4204;43.004;23.052;2022-10-03T12:01:58;6.10;;;4.23;;
8333;SDS011;4204;43.004;23.052;2022-10-03T12:04:39;4.30;;;3.90;;
8333;SDS011;4204;43.004;23.052;2022-10-03T12:10:34;3.60;;;3.27;;
8333;SDS011;4204;43.004;23.052;2022-10-03T12:13:09;5.20;;;3.60;;
8333;SDS011;4204;43.004;23.052;2022-10-03T12:15:40;3.53;;;3.23;;
8333;SDS011;4204;43.004;23.052;2022-10-03T12:18:15;3.30;;;3.00;;
8333;SDS011;4204;43.004;23.052;2022-10-03T12:20:57;3.30;;;3.00;;
8333;SDS011;4204;43.004;23.052;2022-10-03T12:23:37;2.80;;;2.60;;
8333;SDS011;4204;43.004;23.052;2022-10-03T12:26:28;4.03;;;3.60;;
8333;SDS011;4204;43.004;23.052;2022-10-03T12:29:09;9.57;;;4.57;;
8333;SDS011;4204;43.004;23.052;2022-10-03T12:31:39;4.37;;;3.60;;
8333;SDS011;4204;43.004;23.052;2022-10-03T12:34:17;4.03;;;3.60;;
8333;SDS011;4204;43.004;23.052;2022-10-03T12:37:06;4.63;;;3.90;;
8333;SDS011;4204;43.004;23.052;2022-10-03T12:39:51;5.37;;;4.73;;
8333;SDS011;4204;43.004;23.052;2022-10-03T12:42:31;4.60;;;4.20;;
8333;SDS011;4204;43.004;23.052;2022-10-03T12:45:05;5.40;;;4.87;;
8333;SDS011;4204;43.004;23.052;2022-10-03T12:47:45;4.33;;;3.87;;
8333;SDS011;4204;43.004;23.052;2022-10-03T12:50:29;3.90;;;3.60;;
8333;SDS011;4204;43.004;23.052;2022-10-03T12:53:14;4.20;;;3.70;;
8333;SDS011;4204;43.004;23.052;2022-10-03T12:55:54;3.40;;;3.10;;
8333;SDS011;4204;43.004;23.052;2022-10-03T12:58:32;3.57;;;3.27;;
8333;SDS011;4204;43.004;23.052;2022-10-03T13:01:10;3.90;;;3.50;;
8333;SDS011;4204;43.004;23.052;2022-10-03T13:03:49;3.23;;;2.93;;
8333;SDS011;4204;43.004;23.052;2022-10-03T13:06:36;3.20;;;2.83;;
8333;SDS011;4204;43.004;23.052;2022-10-03T13:09:13;4.87;;;3.40;;
8333;SDS011;4204;43.004;23.052;2022-10-03T13:11:55;3.90;;;3.50;;
8333;SDS011;4204;43.004;23.052;2022-10-03T13:14:33;5.00;;;4.50;;
8333;SDS011;4204;43.004;23.052;2022-10-03T13:17:31;3.60;;;3.30;;
8333;SDS011;4204;43.004;23.052;2022-10-03T13:20:04;3.60;;;3.17;;
8333;SDS011;4204;43.004;23.052;2022-10-03T13:22:43;3.90;;;3.50;;
8333;SDS011;4204;43.004;23.052;2022-10-03T13:25:15;4.70;;;4.20;;
8333;SDS011;4204;43.004;23.052;2022-10-03T13:27:48;5.70;;;4.10;;
8333;SDS011;4204;43.004;23.052;2022-10-03T13:30:27;4.30;;;3.73;;
8333;SDS011;4204;43.004;23.052;2022-10-03T13:32:58;4.67;;;4.00;;
8333;SDS011;4204;43.004;23.052;2022-10-03T13:35:32;4.70;;;3.87;;
8333;SDS011;4204;43.004;23.052;2022-10-03T13:38:34;4.30;;;3.90;;
8333;SDS011;4204;43.004;23.052;2022-10-03T13:41:32;4.60;;;4.00;;
8333;SDS011;4204;43.004;23.052;2022-10-03T13:44:12;4.30;;;3.90;;
8333;SDS011;4204;43.004;23.052;2022-10-03T13:46:45;6.23;;;4.53;;
8333;SDS011;4204;43.004;23.052;2022-10-03T13:49:22;3.93;;;3.07;;
8333;SDS011;4204;43.004;23.052;2022-10-03T13:51:58;3.40;;;3.10;;
8333;SDS011;4204;43.004;23.052;2022-10-03T13:54:41;3.73;;;3.40;;
8333;SDS011;4204;43.004;23.052;2022-10-03T13:57:25;5.37;;;3.30;;
8333;SDS011;4204;43.004;23.052;2022-10-03T13:59:57;4.17;;;3.60;;
8333;SDS011;4204;43.004;23.052;2022-10-03T14:02:40;4.70;;;3.80;;
8333;SDS011;4204;43.004;23.052;2022-10-03T14:08:22;3.60;;;3.20;;
8333;SDS011;4204;43.004;23.052;2022-10-03T14:11:07;6.37;;;4.63;;
8333;SDS011;4204;43.004;23.052;2022-10-03T14:13:46;5.43;;;3.90;;
8333;SDS011;4204;43.004;23.052;2022-10-03T14:16:26;6.27;;;4.50;;
8333;SDS011;4204;43.004;23.052;2022-10-03T14:19:01;7.87;;;6.20;;
8333;SDS011;4204;43.004;23.052;2022-10-03T14:21:39;24.07;;;14.67;;
8333;SDS011;4204;43.004;23.052;2022-10-03T14:30:16;2.80;;;2.60;;
8333;SDS011;4204;43.004;23.052;2022-10-03T14:32:53;3.90;;;2.10;;
8333;SDS011;4204;43.004;23.052;2022-10-03T14:35:32;2.07;;;1.87;;
8333;SDS011;4204;43.004;23.052;2022-10-03T14:38:08;2.27;;;2.07;;
8333;SDS011;4204;43.004;23.052;2022-10-03T14:40:47;3.13;;;2.63;;
8333;SDS011;4204;43.004;23.052;2022-10-03T14:43:22;3.00;;;2.50;;
8333;SDS011;4204;43.004;23.052;2022-10-03T14:45:57;3.17;;;2.87;;
8333;SDS011;4204;43.004;23.052;2022-10-03T14:48:28;3.33;;;3.03;;
8333;SDS011;4204;43.004;23.052;2022-10-03T14:51:05;4.13;;;3.30;;
8333;SDS011;4204;43.004;23.052;2022-10-03T14:53:38;6.60;;;4.37;;
8333;SDS011;4204;43.004;23.052;2022-10-03T14:56:13;4.53;;;3.70;;
8333;SDS011;4204;43.004;23.052;2022-10-03T14:58:45;3.60;;;3.13;;
8333;SDS011;4204;43.004;23.052;2022-10-03T15:01:17;4.00;;;3.60;;
8333;SDS011;4204;43.004;23.052;2022-10-03T15:03:54;5.00;;;3.20;;
8333;SDS011;4204;43.004;23.052;2022-10-03T15:09:29;8.00;;;3.17;;
8333;SDS011;4204;43.004;23.052;2022-10-03T15:12:02;7.00;;;3.57;;
8333;SDS011;4204;43.004;23.052;2022-10-03T15:14:33;4.67;;;3.30;;
8333;SDS011;4204;43.004;23.052;2022-10-03T15:17:06;3.97;;;3.60;;
8333;SDS011;4204;43.004;23.052;2022-10-03T15:19:46;3.37;;;3.07;;
8333;SDS011;4204;43.004;23.052;2022-10-03T15:22:24;3.73;;;2.90;;
8333;SDS011;4204;43.004;23.052;2022-10-03T15:24:56;3.50;;;3.20;;
8333;SDS011;4204;43.004;23.052;2022-10-03T15:27:27;20.07;;;10.50;;
8333;SDS011;4204;43.004;23.052;2022-10-03T15:29:56;46.17;;;23.90;;
8333;SDS011;4204;43.004;23.052;2022-10-03T15:32:28;18.87;;;10.27;;
8333;SDS011;4204;43.004;23.052;2022-10-03T15:35:01;6.63;;;4.80;;
8333;SDS011;4204;43.004;23.052;2022-10-03T15:37:33;4.00;;;3.60;;
8333;SDS011;4204;43.004;23.052;2022-10-03T15:40:05;5.20;;;3.80;;
8333;SDS011;4204;43.004;23.052;2022-10-03T15:42:48;6.00;;;4.27;;
8333;SDS011;4204;43.004;23.052;2022-10-03T15:45:22;7.93;;;5.20;;
8333;SDS011;4204;43.004;23.052;2022-10-03T15:47:54;8.03;;;5.83;;
8333;SDS011;4204;43.004;23.052;2022-10-03T15:50:26;5.17;;;4.53;;
8333;SDS011;4204;43.004;23.052;2022-10-03T15:52:59;5.20;;;4.50;;
8333;SDS011;4204;43.004;23.052;2022-10-03T15:55:34;3.20;;;2.90;;
8333;SDS011;4204;43.004;23.052;2022-10-03T15:58:13;30.13;;;20.47;;
8333;SDS011;4204;43.004;23.052;2022-10-03T16:00:49;53.80;;;35.27;;
8333;SDS011;4204;43.004;23.052;2022-10-03T16:03:23;30.00;;;23.13;;
8333;SDS011;4204;43.004;23.052;2022-10-03T16:05:59;11.60;;;8.60;;
8333;SDS011;4204;43.004;23.052;2022-10-03T16:08:35;30.53;;;17.90;;
8333;SDS011;4204;43.004;23.052;2022-10-03T16:11:17;37.90;;;22.57;;
8333;SDS011;4204;43.004;23.052;2022-10-03T16:13:51;12.43;;;8.60;;
8333;SDS011;4204;43.004;23.052;2022-10-03T16:16:44;3.93;;;3.53;;
8333;SDS011;4204;43.004;23.052;2022-10-03T16:19:23;3.10;;;2.80;;
8333;SDS011;4204;43.004;23.052;2022-10-03T16:21:56;6.17;;;5.30;;
8333;SDS011;4204;43.004;23.052;2022-10-03T16:24:39;4.30;;;3.80;;
8333;SDS011;4204;43.004;23.052;2022-10-03T16:27:11;9.93;;;4.93;;
8333;SDS011;4204;43.004;23.052;2022-10-03T16:29:43;8.47;;;5.93;;
8333;SDS011;4204;43.004;23.052;2022-10-03T16:32:20;11.57;;;6.43;;
8333;SDS011;4204;43.004;23.052;2022-10-03T16:34:50;8.40;;;5.47;;
8333;SDS011;4204;43.004;23.052;2022-10-03T16:37:19;5.97;;;4.53;;
8333;SDS011;4204;43.004;23.052;2022-10-03T16:39:56;5.10;;;4.20;;
8333;SDS011;4204;43.004;23.052;2022-10-03T16:42:34;4.67;;;4.07;;
8333;SDS011;4204;43.004;23.052;2022-10-03T16:45:07;9.43;;;6.33;;
8333;SDS011;4204;43.004;23.052;2022-10-03T16:47:48;5.60;;;4.33;;
8333;SDS011;4204;43.004;23.052;2022-10-03T16:50:39;7.33;;;5.77;;
8333;SDS011;4204;43.004;23.052;2022-10-03T16:53:12;7.50;;;4.97;;
8333;SDS011;4204;43.004;23.052;2022-10-03T16:55:44;4.77;;;4.27;;
8333;SDS011;4204;43.004;23.052;2022-10-03T16:58:16;26.30;;;14.30;;
8333;SDS011;4204;43.004;23.052;2022-10-03T17:00:51;11.30;;;5.50;;
8333;SDS011;4204;43.004;23.052;2022-10-03T17:03:23;8.50;;;5.47;;
8333;SDS011;4204;43.004;23.052;2022-10-03T17:05:55;6.03;;;4.10;;
8333;SDS011;4204;43.004;23.052;2022-10-03T17:08:28;5.50;;;3.13;;
8333;SDS011;4204;43.004;23.052;2022-10-03T17:11:01;10.17;;;6.67;;
8333;SDS011;4204;43.004;23.052;2022-10-03T17:13:37;8.20;;;5.47;;
8333;SDS011;4204;43.004;23.052;2022-10-03T17:16:11;9.40;;;6.37;;
8333;SDS011;4204;43.004;23.052;2022-10-03T17:18:43;7.93;;;5.83;;
8333;SDS011;4204;43.004;23.052;2022-10-03T17:21:17;6.67;;;4.80;;
8333;SDS011;4204;43.004;23.052;2022-10-03T17:23:52;4.33;;;3.63;;
8333;SDS011;4204;43.004;23.052;2022-10-03T17:26:33;3.50;;;3.17;;
8333;SDS011;4204;43.004;23.052;2022-10-03T17:29:07;3.23;;;2.93;;
8333;SDS011;4204;43.004;23.052;2022-10-03T17:31:42;5.03;;;2.50;;
8333;SDS011;4204;43.004;23.052;2022-10-03T17:34:13;2.90;;;2.57;;
8333;SDS011;4204;43.004;23.052;2022-10-03T17:39:53;4.17;;;3.63;;
8333;SDS011;4204;43.004;23.052;2022-10-03T17:42:29;3.30;;;2.87;;
8333;SDS011;4204;43.004;23.052;2022-10-03T17:48:03;3.93;;;3.53;;
8333;SDS011;4204;43.004;23.052;2022-10-03T17:50:43;4.43;;;3.70;;
8333;SDS011;4204;43.004;23.052;2022-10-03T17:53:31;4.37;;;3.33;;
8333;SDS011;4204;43.004;23.052;2022-10-03T17:56:05;4.97;;;3.57;;
8333;SDS011;4204;43.004;23.052;2022-10-03T17:58:42;3.90;;;3.50;;
8333;SDS011;4204;43.004;23.052;2022-10-03T18:01:17;4.10;;;3.47;;
8333;SDS011;4204;43.004;23.052;2022-10-03T18:03:52;7.37;;;5.57;;
8333;SDS011;4204;43.004;23.052;2022-10-03T18:06:35;4.70;;;3.90;;
8333;SDS011;4204;43.004;23.052;2022-10-03T18:09:23;3.50;;;3.13;;
8333;SDS011;4204;43.004;23.052;2022-10-03T18:18:01;3.33;;;3.00;;
8333;SDS011;4204;43.004;23.052;2022-10-03T18:20:40;3.50;;;3.20;;
8333;SDS011;4204;43.004;23.052;2022-10-03T18:23:19;4.87;;;3.67;;
8333;SDS011;4204;43.004;23.052;2022-10-03T18:25:57;4.80;;;3.40;;
8333;SDS011;4204;43.004;23.052;2022-10-03T18:28:31;5.17;;;3.17;;
8333;SDS011;4204;43.004;23.052;2022-10-03T18:31:03;5.73;;;3.63;;
8333;SDS011;4204;43.004;23.052;2022-10-03T18:33:40;4.33;;;3.40;;
8333;SDS011;4204;43.004;23.052;2022-10-03T18:36:17;4.17;;;2.97;;
8333;SDS011;4204;43.004;23.052;2022-10-03T18:38:50;3.10;;;2.73;;
8333;SDS011;4204;43.004;23.052;2022-10-03T18:41:22;2.73;;;2.40;;
8333;SDS011;4204;43.004;23.052;2022-10-03T18:43:52;2.63;;;2.43;;
8333;SDS011;4204;43.004;23.052;2022-10-03T18:46:27;4.50;;;2.63;;
8333;SDS011;4204;43.004;23.052;2022-10-03T18:49:04;2.97;;;2.63;;
8333;SDS011;4204;43.004;23.052;2022-10-03T18:51:44;3.47;;;2.57;;
8333;SDS011;4204;43.004;23.052;2022-10-03T18:54:20;3.03;;;2.70;;
8333;SDS011;4204;43.004;23.052;2022-10-03T18:57:02;5.33;;;3.30;;
8333;SDS011;4204;43.004;23.052;2022-10-03T18:59:37;3.70;;;2.80;;
8333;SDS011;4204;43.004;23.052;2022-10-03T19:02:20;3.53;;;2.83;;
8333;SDS011;4204;43.004;23.052;2022-10-03T19:04:55;3.03;;;2.67;;
8333;SDS011;4204;43.004;23.052;2022-10-03T19:07:31;4.33;;;2.70;;
8333;SDS011;4204;43.004;23.052;2022-10-03T19:13:27;3.23;;;2.80;;
8333;SDS011;4204;43.004;23.052;2022-10-03T19:16:09;4.90;;;2.50;;
8333;SDS011;4204;43.004;23.052;2022-10-03T19:18:54;4.53;;;2.83;;
8333;SDS011;4204;43.004;23.052;2022-10-03T19:21:27;3.97;;;2.77;;
8333;SDS011;4204;43.004;23.052;2022-10-03T19:24:03;2.87;;;2.60;;
8333;SDS011;4204;43.004;23.052;2022-10-03T19:26:42;3.30;;;2.57;;
8333;SDS011;4204;43.004;23.052;2022-10-03T19:29:14;3.60;;;2.63;;
8333;SDS011;4204;43.004;23.052;2022-10-03T19:31:51;2.63;;;2.43;;
8333;SDS011;4204;43.004;23.052;2022-10-03T19:34:33;2.60;;;2.40;;
8333;SDS011;4204;43.004;23.052;2022-10-03T19:37:14;4.77;;;2.57;;
8333;SDS011;4204;43.004;23.052;2022-10-03T19:39:51;5.03;;;2.90;;
8333;SDS011;4204;43.004;23.052;2022-10-03T19:42:25;8.00;;;2.43;;
8333;SDS011;4204;43.004;23.052;2022-10-03T19:45:01;2.93;;;2.37;;
8333;SDS011;4204;43.004;23.052;2022-10-03T19:47:30;2.67;;;2.30;;
8333;SDS011;4204;43.004;23.052;2022-10-03T19:50:07;2.60;;;2.20;;
8333;SDS011;4204;43.004;23.052;2022-10-03T19:52:43;3.33;;;2.50;;
8333;SDS011;4204;43.004;23.052;2022-10-03T19:55:11;3.13;;;2.60;;
8333;SDS011;4204;43.004;23.052;2022-10-03T19:57:44;2.67;;;2.40;;
8333;SDS011;4204;43.004;23.052;2022-10-03T20:00:21;3.13;;;2.60;;
8333;SDS011;4204;43.004;23.052;2022-10-03T20:02:54;5.47;;;2.50;;
8333;SDS011;4204;43.004;23.052;2022-10-03T20:05:45;2.63;;;2.43;;
8333;SDS011;4204;43.004;23.052;2022-10-03T20:08:22;4.07;;;2.57;;
8333;SDS011;4204;43.004;23.052;2022-10-03T20:10:55;2.90;;;2.40;;
8333;SDS011;4204;43.004;23.052;2022-10-03T20:13:32;5.03;;;2.80;;
8333;SDS011;4204;43.004;23.052;2022-10-03T20:16:00;2.43;;;2.23;;
8333;SDS011;4204;43.004;23.052;2022-10-03T20:18:32;4.20;;;2.50;;
8333;SDS011;4204;43.004;23.052;2022-10-03T20:21:03;3.63;;;2.53;;
8333;SDS011;4204;43.004;23.052;2022-10-03T20:23:42;3.07;;;2.60;;
8333;SDS011;4204;43.004;23.052;2022-10-03T20:26:16;3.80;;;2.30;;
8333;SDS011;4204;43.004;23.052;2022-10-03T20:29:01;2.80;;;2.50;;
8333;SDS011;4204;43.004;23.052;2022-10-03T20:31:42;2.50;;;2.30;;